sensor_id;sensor_type;location;lat;lon;timestamp;P1;durP1;ratioP1;P2;durP2;ratioP2
18383;SDS011;9318;48.644;9.456;2022-09-02T00:00:57;7.37;;;4.50;;
18383;SDS011;9318;48.644;9.456;2022-09-02T00:03:29;5.73;;;3.77;;
18383;SDS011;9318;48.644;9.456;2022-09-02T00:05:58;5.43;;;4.13;;
18383;SDS011;9318;48.644;9.456;2022-09-02T00:08:25;5.13;;;4.00;;
18383;SDS011;9318;48.644;9.456;2022-09-02T00:10:53;6.97;;;4.00;;
18383;SDS011;9318;48.644;9.456;2022-09-02T00:13:20;6.50;;;4.20;;
18383;SDS011;9318;48.644;9.456;2022-09-02T00:15:47;5.30;;;3.67;;
18383;SDS011;9318;48.644;9.456;2022-09-02T00:18:16;5.07;;;3.97;;
18383;SDS011;9318;48.644;9.456;2022-09-02T00:20:46;6.10;;;4.00;;
18383;SDS011;9318;48.644;9.456;2022-09-02T00:23:14;5.60;;;4.13;;
18383;SDS011;9318;48.644;9.456;2022-09-02T00:25:42;5.77;;;4.27;;
18383;SDS011;9318;48.644;9.456;2022-09-02T00:28:11;7.87;;;4.20;;
18383;SDS011;9318;48.644;9.456;2022-09-02T00:30:39;6.13;;;4.00;;
18383;SDS011;9318;48.644;9.456;2022-09-02T00:33:07;6.50;;;3.83;;
18383;SDS011;9318;48.644;9.456;2022-09-02T00:35:35;4.93;;;4.10;;
18383;SDS011;9318;48.644;9.456;2022-09-02T00:38:04;5.43;;;4.10;;
18383;SDS011;9318;48.644;9.456;2022-09-02T00:40:32;8.60;;;4.93;;
18383;SDS011;9318;48.644;9.456;2022-09-02T00:43:00;6.80;;;4.60;;
18383;SDS011;9318;48.644;9.456;2022-09-02T00:45:27;7.40;;;4.47;;
18383;SDS011;9318;48.644;9.456;2022-09-02T00:47:54;8.37;;;4.77;;
18383;SDS011;9318;48.644;9.456;2022-09-02T00:50:22;7.47;;;4.37;;
18383;SDS011;9318;48.644;9.456;2022-09-02T00:52:54;8.03;;;4.40;;
18383;SDS011;9318;48.644;9.456;2022-09-02T00:55:28;7.57;;;4.30;;
18383;SDS011;9318;48.644;9.456;2022-09-02T00:57:58;6.50;;;4.40;;
18383;SDS011;9318;48.644;9.456;2022-09-02T01:00:30;7.30;;;4.60;;
18383;SDS011;9318;48.644;9.456;2022-09-02T01:03:00;6.23;;;4.47;;
18383;SDS011;9318;48.644;9.456;2022-09-02T01:05:31;8.87;;;5.10;;
18383;SDS011;9318;48.644;9.456;2022-09-02T01:08:02;8.30;;;5.13;;
18383;SDS011;9318;48.644;9.456;2022-09-02T01:10:33;10.27;;;4.80;;
18383;SDS011;9318;48.644;9.456;2022-09-02T01:13:02;7.03;;;4.70;;
18383;SDS011;9318;48.644;9.456;2022-09-02T01:15:32;6.57;;;4.30;;
18383;SDS011;9318;48.644;9.456;2022-09-02T01:18:02;8.83;;;4.50;;
18383;SDS011;9318;48.644;9.456;2022-09-02T01:20:30;6.07;;;4.50;;
18383;SDS011;9318;48.644;9.456;2022-09-02T01:23:00;8.43;;;4.20;;
18383;SDS011;9318;48.644;9.456;2022-09-02T01:25:28;5.47;;;4.13;;
18383;SDS011;9318;48.644;9.456;2022-09-02T01:27:58;6.57;;;4.10;;
18383;SDS011;9318;48.644;9.456;2022-09-02T01:30:26;5.87;;;3.97;;
18383;SDS011;9318;48.644;9.456;2022-09-02T01:32:53;6.97;;;4.00;;
18383;SDS011;9318;48.644;9.456;2022-09-02T01:35:21;5.07;;;3.70;;
18383;SDS011;9318;48.644;9.456;2022-09-02T01:37:48;8.30;;;3.87;;
18383;SDS011;9318;48.644;9.456;2022-09-02T01:40:21;6.03;;;3.50;;
18383;SDS011;9318;48.644;9.456;2022-09-02T01:42:49;6.03;;;3.63;;
18383;SDS011;9318;48.644;9.456;2022-09-02T01:45:20;7.77;;;3.73;;
18383;SDS011;9318;48.644;9.456;2022-09-02T01:47:47;5.97;;;3.67;;
18383;SDS011;9318;48.644;9.456;2022-09-02T01:50:15;5.83;;;3.80;;
18383;SDS011;9318;48.644;9.456;2022-09-02T01:52:42;4.13;;;3.53;;
18383;SDS011;9318;48.644;9.456;2022-09-02T01:55:10;6.07;;;3.60;;
18383;SDS011;9318;48.644;9.456;2022-09-02T01:57:38;8.43;;;3.57;;
18383;SDS011;9318;48.644;9.456;2022-09-02T02:00:06;6.30;;;3.60;;
18383;SDS011;9318;48.644;9.456;2022-09-02T02:02:36;6.40;;;3.57;;
18383;SDS011;9318;48.644;9.456;2022-09-02T02:05:03;5.73;;;3.60;;
18383;SDS011;9318;48.644;9.456;2022-09-02T02:07:31;5.37;;;3.57;;
18383;SDS011;9318;48.644;9.456;2022-09-02T02:09:58;5.40;;;3.60;;
18383;SDS011;9318;48.644;9.456;2022-09-02T02:12:25;6.13;;;3.80;;
18383;SDS011;9318;48.644;9.456;2022-09-02T02:14:55;5.73;;;3.50;;
18383;SDS011;9318;48.644;9.456;2022-09-02T02:17:22;6.73;;;3.40;;
18383;SDS011;9318;48.644;9.456;2022-09-02T02:19:49;5.20;;;3.70;;
18383;SDS011;9318;48.644;9.456;2022-09-02T02:22:16;4.43;;;3.57;;
18383;SDS011;9318;48.644;9.456;2022-09-02T02:24:45;4.10;;;3.30;;
18383;SDS011;9318;48.644;9.456;2022-09-02T02:27:12;4.33;;;3.53;;
18383;SDS011;9318;48.644;9.456;2022-09-02T02:29:39;7.33;;;3.57;;
18383;SDS011;9318;48.644;9.456;2022-09-02T02:32:08;6.17;;;4.00;;
18383;SDS011;9318;48.644;9.456;2022-09-02T02:34:35;11.97;;;4.70;;
18383;SDS011;9318;48.644;9.456;2022-09-02T02:37:03;11.70;;;4.40;;
18383;SDS011;9318;48.644;9.456;2022-09-02T02:39:30;9.43;;;4.10;;
18383;SDS011;9318;48.644;9.456;2022-09-02T02:41:57;9.57;;;4.17;;
18383;SDS011;9318;48.644;9.456;2022-09-02T02:44:25;8.17;;;4.07;;
18383;SDS011;9318;48.644;9.456;2022-09-02T02:46:53;11.57;;;3.90;;
18383;SDS011;9318;48.644;9.456;2022-09-02T02:49:22;8.07;;;3.83;;
18383;SDS011;9318;48.644;9.456;2022-09-02T02:51:51;6.60;;;3.53;;
18383;SDS011;9318;48.644;9.456;2022-09-02T02:54:19;6.23;;;3.40;;
18383;SDS011;9318;48.644;9.456;2022-09-02T02:56:46;5.67;;;3.50;;
18383;SDS011;9318;48.644;9.456;2022-09-02T02:59:13;5.70;;;3.67;;
18383;SDS011;9318;48.644;9.456;2022-09-02T03:01:40;5.03;;;3.27;;
18383;SDS011;9318;48.644;9.456;2022-09-02T03:04:07;7.50;;;3.70;;
18383;SDS011;9318;48.644;9.456;2022-09-02T03:06:36;5.27;;;3.50;;
18383;SDS011;9318;48.644;9.456;2022-09-02T03:09:03;5.33;;;3.20;;
18383;SDS011;9318;48.644;9.456;2022-09-02T03:11:31;3.90;;;2.90;;
18383;SDS011;9318;48.644;9.456;2022-09-02T03:13:58;5.07;;;3.00;;
18383;SDS011;9318;48.644;9.456;2022-09-02T03:16:25;4.40;;;3.10;;
18383;SDS011;9318;48.644;9.456;2022-09-02T03:18:52;4.97;;;3.20;;
18383;SDS011;9318;48.644;9.456;2022-09-02T03:21:20;6.20;;;3.10;;
18383;SDS011;9318;48.644;9.456;2022-09-02T03:23:48;4.50;;;3.30;;
18383;SDS011;9318;48.644;9.456;2022-09-02T03:26:17;6.53;;;3.20;;
18383;SDS011;9318;48.644;9.456;2022-09-02T03:28:46;5.63;;;3.27;;
18383;SDS011;9318;48.644;9.456;2022-09-02T03:31:14;4.50;;;3.30;;
18383;SDS011;9318;48.644;9.456;2022-09-02T03:33:43;4.57;;;3.20;;
18383;SDS011;9318;48.644;9.456;2022-09-02T03:36:17;7.87;;;3.30;;
18383;SDS011;9318;48.644;9.456;2022-09-02T03:38:48;11.73;;;3.70;;
18383;SDS011;9318;48.644;9.456;2022-09-02T03:41:15;3.60;;;3.23;;
18383;SDS011;9318;48.644;9.456;2022-09-02T03:43:43;6.87;;;3.40;;
18383;SDS011;9318;48.644;9.456;2022-09-02T03:46:10;6.27;;;3.43;;
18383;SDS011;9318;48.644;9.456;2022-09-02T03:48:38;4.70;;;3.30;;
18383;SDS011;9318;48.644;9.456;2022-09-02T03:51:05;6.27;;;3.20;;
18383;SDS011;9318;48.644;9.456;2022-09-02T03:53:33;6.77;;;3.57;;
18383;SDS011;9318;48.644;9.456;2022-09-02T03:56:05;8.97;;;3.90;;
18383;SDS011;9318;48.644;9.456;2022-09-02T03:58:36;6.97;;;3.73;;
18383;SDS011;9318;48.644;9.456;2022-09-02T04:01:04;6.73;;;3.70;;
18383;SDS011;9318;48.644;9.456;2022-09-02T04:03:31;7.20;;;3.50;;
18383;SDS011;9318;48.644;9.456;2022-09-02T04:05:58;4.93;;;3.63;;
18383;SDS011;9318;48.644;9.456;2022-09-02T04:08:25;4.57;;;3.53;;
18383;SDS011;9318;48.644;9.456;2022-09-02T04:10:53;4.77;;;3.50;;
18383;SDS011;9318;48.644;9.456;2022-09-02T04:13:21;4.87;;;3.53;;
18383;SDS011;9318;48.644;9.456;2022-09-02T04:15:49;5.07;;;3.33;;
18383;SDS011;9318;48.644;9.456;2022-09-02T04:18:16;4.77;;;3.40;;
18383;SDS011;9318;48.644;9.456;2022-09-02T04:20:43;5.10;;;3.70;;
18383;SDS011;9318;48.644;9.456;2022-09-02T04:23:11;5.93;;;3.53;;
18383;SDS011;9318;48.644;9.456;2022-09-02T04:25:39;7.27;;;3.80;;
18383;SDS011;9318;48.644;9.456;2022-09-02T04:28:07;4.70;;;3.47;;
18383;SDS011;9318;48.644;9.456;2022-09-02T04:30:38;6.37;;;3.57;;
18383;SDS011;9318;48.644;9.456;2022-09-02T04:33:05;7.67;;;3.43;;
18383;SDS011;9318;48.644;9.456;2022-09-02T04:35:33;6.63;;;3.50;;
18383;SDS011;9318;48.644;9.456;2022-09-02T04:38:00;5.13;;;3.50;;
18383;SDS011;9318;48.644;9.456;2022-09-02T04:40:28;5.43;;;3.80;;
18383;SDS011;9318;48.644;9.456;2022-09-02T04:42:55;6.60;;;3.90;;
18383;SDS011;9318;48.644;9.456;2022-09-02T04:45:23;8.30;;;3.77;;
18383;SDS011;9318;48.644;9.456;2022-09-02T04:47:52;5.87;;;3.80;;
18383;SDS011;9318;48.644;9.456;2022-09-02T04:50:19;9.43;;;3.63;;
18383;SDS011;9318;48.644;9.456;2022-09-02T04:52:46;6.43;;;3.80;;
18383;SDS011;9318;48.644;9.456;2022-09-02T04:55:13;5.83;;;3.70;;
18383;SDS011;9318;48.644;9.456;2022-09-02T04:57:40;8.13;;;4.50;;
18383;SDS011;9318;48.644;9.456;2022-09-02T05:00:08;8.00;;;3.70;;
18383;SDS011;9318;48.644;9.456;2022-09-02T05:02:36;6.40;;;3.87;;
18383;SDS011;9318;48.644;9.456;2022-09-02T05:05:06;6.50;;;4.00;;
18383;SDS011;9318;48.644;9.456;2022-09-02T05:07:34;8.43;;;4.00;;
18383;SDS011;9318;48.644;9.456;2022-09-02T05:10:02;6.40;;;3.90;;
18383;SDS011;9318;48.644;9.456;2022-09-02T05:12:30;7.17;;;3.67;;
18383;SDS011;9318;48.644;9.456;2022-09-02T05:14:59;6.77;;;3.87;;
18383;SDS011;9318;48.644;9.456;2022-09-02T05:17:26;7.40;;;3.73;;
18383;SDS011;9318;48.644;9.456;2022-09-02T05:19:56;5.37;;;3.80;;
18383;SDS011;9318;48.644;9.456;2022-09-02T05:22:24;5.37;;;3.53;;
18383;SDS011;9318;48.644;9.456;2022-09-02T05:24:53;7.60;;;3.67;;
18383;SDS011;9318;48.644;9.456;2022-09-02T05:27:21;8.67;;;3.83;;
18383;SDS011;9318;48.644;9.456;2022-09-02T05:29:48;7.97;;;4.13;;
18383;SDS011;9318;48.644;9.456;2022-09-02T05:32:15;10.30;;;4.43;;
18383;SDS011;9318;48.644;9.456;2022-09-02T05:34:43;9.60;;;4.50;;
18383;SDS011;9318;48.644;9.456;2022-09-02T05:37:10;9.90;;;4.93;;
18383;SDS011;9318;48.644;9.456;2022-09-02T05:39:38;9.50;;;4.23;;
18383;SDS011;9318;48.644;9.456;2022-09-02T05:42:06;7.63;;;4.20;;
18383;SDS011;9318;48.644;9.456;2022-09-02T05:44:34;4.87;;;3.70;;
18383;SDS011;9318;48.644;9.456;2022-09-02T05:47:02;6.57;;;3.80;;
18383;SDS011;9318;48.644;9.456;2022-09-02T05:49:30;8.60;;;3.77;;
18383;SDS011;9318;48.644;9.456;2022-09-02T05:51:57;7.73;;;3.73;;
18383;SDS011;9318;48.644;9.456;2022-09-02T05:54:27;7.47;;;3.60;;
18383;SDS011;9318;48.644;9.456;2022-09-02T05:56:58;5.53;;;4.00;;
18383;SDS011;9318;48.644;9.456;2022-09-02T05:59:29;6.00;;;3.83;;
18383;SDS011;9318;48.644;9.456;2022-09-02T06:01:59;6.43;;;3.40;;
18383;SDS011;9318;48.644;9.456;2022-09-02T06:04:26;5.77;;;3.50;;
18383;SDS011;9318;48.644;9.456;2022-09-02T06:06:54;6.50;;;3.57;;
18383;SDS011;9318;48.644;9.456;2022-09-02T06:09:21;7.33;;;4.07;;
18383;SDS011;9318;48.644;9.456;2022-09-02T06:11:49;6.87;;;3.60;;
18383;SDS011;9318;48.644;9.456;2022-09-02T06:14:19;11.23;;;3.83;;
18383;SDS011;9318;48.644;9.456;2022-09-02T06:16:49;7.07;;;3.43;;
18383;SDS011;9318;48.644;9.456;2022-09-02T06:19:18;6.40;;;3.50;;
18383;SDS011;9318;48.644;9.456;2022-09-02T06:21:45;6.50;;;3.70;;
18383;SDS011;9318;48.644;9.456;2022-09-02T06:24:12;8.93;;;4.30;;
18383;SDS011;9318;48.644;9.456;2022-09-02T06:26:40;7.60;;;3.83;;
18383;SDS011;9318;48.644;9.456;2022-09-02T06:29:08;6.50;;;3.40;;
18383;SDS011;9318;48.644;9.456;2022-09-02T06:31:38;4.10;;;3.10;;
18383;SDS011;9318;48.644;9.456;2022-09-02T06:34:06;4.43;;;3.40;;
18383;SDS011;9318;48.644;9.456;2022-09-02T06:36:36;5.77;;;3.53;;
18383;SDS011;9318;48.644;9.456;2022-09-02T06:39:04;7.77;;;3.80;;
18383;SDS011;9318;48.644;9.456;2022-09-02T06:41:32;7.93;;;3.60;;
18383;SDS011;9318;48.644;9.456;2022-09-02T06:44:00;5.97;;;3.23;;
18383;SDS011;9318;48.644;9.456;2022-09-02T06:46:31;6.13;;;3.80;;
18383;SDS011;9318;48.644;9.456;2022-09-02T06:49:03;4.53;;;3.50;;
18383;SDS011;9318;48.644;9.456;2022-09-02T06:51:32;6.10;;;3.40;;
18383;SDS011;9318;48.644;9.456;2022-09-02T06:54:01;5.67;;;3.27;;
18383;SDS011;9318;48.644;9.456;2022-09-02T06:56:31;7.80;;;4.03;;
18383;SDS011;9318;48.644;9.456;2022-09-02T06:58:59;4.60;;;3.10;;
18383;SDS011;9318;48.644;9.456;2022-09-02T07:01:27;6.30;;;3.20;;
18383;SDS011;9318;48.644;9.456;2022-09-02T07:03:56;5.30;;;3.30;;
18383;SDS011;9318;48.644;9.456;2022-09-02T07:06:45;4.10;;;3.10;;
18383;SDS011;9318;48.644;9.456;2022-09-02T07:09:16;4.78;;;3.15;;
18383;SDS011;9318;48.644;9.456;2022-09-02T07:11:45;5.43;;;3.20;;
18383;SDS011;9318;48.644;9.456;2022-09-02T07:14:15;4.40;;;2.83;;
18383;SDS011;9318;48.644;9.456;2022-09-02T07:16:47;3.90;;;3.10;;
18383;SDS011;9318;48.644;9.456;2022-09-02T07:19:17;6.90;;;3.35;;
18383;SDS011;9318;48.644;9.456;2022-09-02T07:21:48;4.22;;;3.10;;
18383;SDS011;9318;48.644;9.456;2022-09-02T07:24:18;6.38;;;3.55;;
18383;SDS011;9318;48.644;9.456;2022-09-02T07:26:48;5.65;;;3.40;;
18383;SDS011;9318;48.644;9.456;2022-09-02T07:29:17;6.25;;;3.20;;
18383;SDS011;9318;48.644;9.456;2022-09-02T07:31:46;4.45;;;2.75;;
18383;SDS011;9318;48.644;9.456;2022-09-02T07:34:14;4.38;;;2.80;;
18383;SDS011;9318;48.644;9.456;2022-09-02T07:36:41;7.20;;;3.17;;
18383;SDS011;9318;48.644;9.456;2022-09-02T07:39:12;6.50;;;3.30;;
18383;SDS011;9318;48.644;9.456;2022-09-02T07:41:40;4.85;;;3.20;;
18383;SDS011;9318;48.644;9.456;2022-09-02T07:44:08;7.45;;;3.35;;
18383;SDS011;9318;48.644;9.456;2022-09-02T07:46:36;12.60;;;3.55;;
18383;SDS011;9318;48.644;9.456;2022-09-02T07:49:04;15.07;;;3.85;;
18383;SDS011;9318;48.644;9.456;2022-09-02T07:51:34;5.53;;;2.90;;
18383;SDS011;9318;48.644;9.456;2022-09-02T07:54:02;6.68;;;2.80;;
18383;SDS011;9318;48.644;9.456;2022-09-02T07:56:31;3.28;;;2.80;;
18383;SDS011;9318;48.644;9.456;2022-09-02T07:58:59;9.43;;;3.30;;
18383;SDS011;9318;48.644;9.456;2022-09-02T08:01:27;3.30;;;2.88;;
18383;SDS011;9318;48.644;9.456;2022-09-02T08:03:55;4.50;;;3.00;;
18383;SDS011;9318;48.644;9.456;2022-09-02T08:06:22;3.92;;;2.60;;
18383;SDS011;9318;48.644;9.456;2022-09-02T08:08:51;4.75;;;2.83;;
18383;SDS011;9318;48.644;9.456;2022-09-02T08:11:19;5.40;;;2.80;;
18383;SDS011;9318;48.644;9.456;2022-09-02T08:13:49;4.82;;;2.50;;
18383;SDS011;9318;48.644;9.456;2022-09-02T08:16:17;3.22;;;2.70;;
18383;SDS011;9318;48.644;9.456;2022-09-02T08:18:44;4.93;;;2.42;;
18383;SDS011;9318;48.644;9.456;2022-09-02T08:21:12;2.63;;;2.42;;
18383;SDS011;9318;48.644;9.456;2022-09-02T08:23:40;3.33;;;2.70;;
18383;SDS011;9318;48.644;9.456;2022-09-02T08:26:07;2.72;;;2.45;;
18383;SDS011;9318;48.644;9.456;2022-09-02T08:28:35;3.78;;;2.40;;
18383;SDS011;9318;48.644;9.456;2022-09-02T08:31:05;4.30;;;2.45;;
18383;SDS011;9318;48.644;9.456;2022-09-02T08:33:33;5.45;;;2.38;;
18383;SDS011;9318;48.644;9.456;2022-09-02T08:36:02;3.90;;;2.50;;
18383;SDS011;9318;48.644;9.456;2022-09-02T08:38:30;4.55;;;2.28;;
18383;SDS011;9318;48.644;9.456;2022-09-02T08:40:57;2.83;;;2.40;;
18383;SDS011;9318;48.644;9.456;2022-09-02T08:43:27;3.85;;;2.38;;
18383;SDS011;9318;48.644;9.456;2022-09-02T08:46:01;2.85;;;2.50;;
18383;SDS011;9318;48.644;9.456;2022-09-02T08:48:33;3.42;;;2.30;;
18383;SDS011;9318;48.644;9.456;2022-09-02T08:51:06;2.85;;;2.38;;
18383;SDS011;9318;48.644;9.456;2022-09-02T08:53:36;4.43;;;2.40;;
18383;SDS011;9318;48.644;9.456;2022-09-02T08:56:10;4.32;;;2.28;;
18383;SDS011;9318;48.644;9.456;2022-09-02T08:58:42;2.72;;;2.20;;
18383;SDS011;9318;48.644;9.456;2022-09-02T09:01:14;3.55;;;2.45;;
18383;SDS011;9318;48.644;9.456;2022-09-02T09:04:00;5.95;;;2.35;;
18383;SDS011;9318;48.644;9.456;2022-09-02T09:06:40;5.40;;;2.30;;
18383;SDS011;9318;48.644;9.456;2022-09-02T09:09:15;3.33;;;2.20;;
18383;SDS011;9318;48.644;9.456;2022-09-02T09:11:50;2.13;;;1.92;;
18383;SDS011;9318;48.644;9.456;2022-09-02T09:14:25;2.28;;;2.03;;
18383;SDS011;9318;48.644;9.456;2022-09-02T09:17:03;3.30;;;2.25;;
18383;SDS011;9318;48.644;9.456;2022-09-02T09:19:45;6.03;;;2.42;;
18383;SDS011;9318;48.644;9.456;2022-09-02T09:22:17;3.20;;;2.00;;
18383;SDS011;9318;48.644;9.456;2022-09-02T09:24:46;2.67;;;2.08;;
18383;SDS011;9318;48.644;9.456;2022-09-02T09:27:15;4.25;;;1.95;;
18383;SDS011;9318;48.644;9.456;2022-09-02T09:29:43;2.13;;;1.92;;
18383;SDS011;9318;48.644;9.456;2022-09-02T09:32:13;5.70;;;2.25;;
18383;SDS011;9318;48.644;9.456;2022-09-02T09:34:55;3.35;;;1.90;;
18383;SDS011;9318;48.644;9.456;2022-09-02T09:37:30;4.63;;;2.08;;
18383;SDS011;9318;48.644;9.456;2022-09-02T09:39:59;3.65;;;2.13;;
18383;SDS011;9318;48.644;9.456;2022-09-02T09:42:30;2.10;;;1.85;;
18383;SDS011;9318;48.644;9.456;2022-09-02T09:44:59;4.25;;;1.85;;
18383;SDS011;9318;48.644;9.456;2022-09-02T09:47:54;4.45;;;2.10;;
18383;SDS011;9318;48.644;9.456;2022-09-02T09:50:45;5.00;;;2.10;;
18383;SDS011;9318;48.644;9.456;2022-09-02T09:53:15;2.92;;;1.80;;
18383;SDS011;9318;48.644;9.456;2022-09-02T09:55:49;2.85;;;1.70;;
18383;SDS011;9318;48.644;9.456;2022-09-02T09:58:19;3.03;;;1.92;;
18383;SDS011;9318;48.644;9.456;2022-09-02T10:00:48;3.58;;;1.95;;
18383;SDS011;9318;48.644;9.456;2022-09-02T10:03:21;3.35;;;2.00;;
18383;SDS011;9318;48.644;9.456;2022-09-02T10:05:53;2.00;;;1.80;;
18383;SDS011;9318;48.644;9.456;2022-09-02T10:08:23;3.05;;;1.52;;
18383;SDS011;9318;48.644;9.456;2022-09-02T10:10:58;1.98;;;1.80;;
18383;SDS011;9318;48.644;9.456;2022-09-02T10:13:27;2.22;;;2.00;;
18383;SDS011;9318;48.644;9.456;2022-09-02T10:16:03;3.65;;;2.00;;
18383;SDS011;9318;48.644;9.456;2022-09-02T10:18:52;4.40;;;2.03;;
18383;SDS011;9318;48.644;9.456;2022-09-02T10:21:27;4.60;;;1.98;;
18383;SDS011;9318;48.644;9.456;2022-09-02T10:24:07;3.25;;;1.92;;
18383;SDS011;9318;48.644;9.456;2022-09-02T10:26:46;3.88;;;1.90;;
18383;SDS011;9318;48.644;9.456;2022-09-02T10:35:10;2.53;;;1.83;;
18383;SDS011;9318;48.644;9.456;2022-09-02T10:37:50;2.22;;;1.70;;
18383;SDS011;9318;48.644;9.456;2022-09-02T10:40:28;3.70;;;1.52;;
18383;SDS011;9318;48.644;9.456;2022-09-02T10:43:03;3.78;;;2.00;;
18383;SDS011;9318;48.644;9.456;2022-09-02T10:45:33;2.15;;;1.52;;
18383;SDS011;9318;48.644;9.456;2022-09-02T10:48:07;3.97;;;1.98;;
18383;SDS011;9318;48.644;9.456;2022-09-02T10:50:47;1.98;;;1.63;;
18383;SDS011;9318;48.644;9.456;2022-09-02T10:53:28;3.55;;;1.83;;
18383;SDS011;9318;48.644;9.456;2022-09-02T10:56:04;3.20;;;2.00;;
18383;SDS011;9318;48.644;9.456;2022-09-02T10:58:44;1.77;;;1.67;;
18383;SDS011;9318;48.644;9.456;2022-09-02T11:01:17;1.88;;;1.70;;
18383;SDS011;9318;48.644;9.456;2022-09-02T11:03:52;4.25;;;1.90;;
18383;SDS011;9318;48.644;9.456;2022-09-02T11:06:28;3.22;;;1.90;;
18383;SDS011;9318;48.644;9.456;2022-09-02T11:08:59;2.03;;;1.60;;
18383;SDS011;9318;48.644;9.456;2022-09-02T11:11:31;3.67;;;1.80;;
18383;SDS011;9318;48.644;9.456;2022-09-02T11:14:10;3.13;;;1.92;;
18383;SDS011;9318;48.644;9.456;2022-09-02T11:16:45;2.72;;;1.80;;
18383;SDS011;9318;48.644;9.456;2022-09-02T11:19:18;1.70;;;1.60;;
18383;SDS011;9318;48.644;9.456;2022-09-02T11:21:53;1.92;;;1.60;;
18383;SDS011;9318;48.644;9.456;2022-09-02T11:24:29;2.20;;;1.55;;
18383;SDS011;9318;48.644;9.456;2022-09-02T11:27:02;2.65;;;1.48;;
18383;SDS011;9318;48.644;9.456;2022-09-02T11:29:39;2.25;;;1.70;;
18383;SDS011;9318;48.644;9.456;2022-09-02T11:32:17;1.58;;;1.40;;
18383;SDS011;9318;48.644;9.456;2022-09-02T11:34:50;2.45;;;1.60;;
18383;SDS011;9318;48.644;9.456;2022-09-02T11:37:24;3.92;;;1.75;;
18383;SDS011;9318;48.644;9.456;2022-09-02T11:39:58;3.15;;;1.45;;
18383;SDS011;9318;48.644;9.456;2022-09-02T11:42:31;2.15;;;1.70;;
18383;SDS011;9318;48.644;9.456;2022-09-02T11:48:10;1.50;;;1.35;;
18383;SDS011;9318;48.644;9.456;2022-09-02T11:53:53;3.13;;;1.40;;
18383;SDS011;9318;48.644;9.456;2022-09-02T11:56:25;1.63;;;1.25;;
18383;SDS011;9318;48.644;9.456;2022-09-02T11:58:54;1.52;;;1.40;;
18383;SDS011;9318;48.644;9.456;2022-09-02T12:01:25;1.92;;;1.50;;
18383;SDS011;9318;48.644;9.456;2022-09-02T12:03:57;4.20;;;1.52;;
18383;SDS011;9318;48.644;9.456;2022-09-02T12:06:28;1.65;;;1.45;;
18383;SDS011;9318;48.644;9.456;2022-09-02T12:08:57;2.50;;;1.73;;
18383;SDS011;9318;48.644;9.456;2022-09-02T12:11:38;2.63;;;1.60;;
18383;SDS011;9318;48.644;9.456;2022-09-02T12:17:42;2.90;;;1.42;;
18383;SDS011;9318;48.644;9.456;2022-09-02T12:29:33;1.40;;;1.23;;
18383;SDS011;9318;48.644;9.456;2022-09-02T12:32:02;1.42;;;1.33;;
18383;SDS011;9318;48.644;9.456;2022-09-02T12:37:49;3.47;;;1.70;;
18383;SDS011;9318;48.644;9.456;2022-09-02T12:40:22;3.95;;;1.60;;
18383;SDS011;9318;48.644;9.456;2022-09-02T12:42:58;2.65;;;1.63;;
18383;SDS011;9318;48.644;9.456;2022-09-02T12:45:29;1.65;;;1.40;;
18383;SDS011;9318;48.644;9.456;2022-09-02T12:48:00;1.50;;;1.40;;
18383;SDS011;9318;48.644;9.456;2022-09-02T12:53:24;2.75;;;1.55;;
18383;SDS011;9318;48.644;9.456;2022-09-02T12:55:58;2.70;;;1.50;;
18383;SDS011;9318;48.644;9.456;2022-09-02T12:58:31;6.45;;;1.80;;
18383;SDS011;9318;48.644;9.456;2022-09-02T13:01:04;2.25;;;1.20;;
18383;SDS011;9318;48.644;9.456;2022-09-02T13:03:43;3.95;;;1.70;;
18383;SDS011;9318;48.644;9.456;2022-09-02T13:06:28;7.25;;;2.05;;
18383;SDS011;9318;48.644;9.456;2022-09-02T13:09:17;4.07;;;1.80;;
18383;SDS011;9318;48.644;9.456;2022-09-02T13:12:15;2.38;;;1.65;;
18383;SDS011;9318;48.644;9.456;2022-09-02T13:15:09;2.30;;;1.50;;
18383;SDS011;9318;48.644;9.456;2022-09-02T13:17:53;1.58;;;1.40;;
18383;SDS011;9318;48.644;9.456;2022-09-02T13:20:59;3.80;;;1.30;;
18383;SDS011;9318;48.644;9.456;2022-09-02T13:27:05;2.92;;;1.50;;
18383;SDS011;9318;48.644;9.456;2022-09-02T13:30:02;3.20;;;1.42;;
18383;SDS011;9318;48.644;9.456;2022-09-02T13:32:34;3.22;;;1.50;;
18383;SDS011;9318;48.644;9.456;2022-09-02T13:35:03;2.92;;;1.48;;
18383;SDS011;9318;48.644;9.456;2022-09-02T13:37:33;4.97;;;1.45;;
18383;SDS011;9318;48.644;9.456;2022-09-02T13:40:05;3.08;;;1.38;;
18383;SDS011;9318;48.644;9.456;2022-09-02T13:42:46;2.92;;;1.50;;
18383;SDS011;9318;48.644;9.456;2022-09-02T13:45:15;2.20;;;1.50;;
18383;SDS011;9318;48.644;9.456;2022-09-02T13:47:45;3.33;;;1.50;;
18383;SDS011;9318;48.644;9.456;2022-09-02T13:50:16;3.03;;;1.48;;
18383;SDS011;9318;48.644;9.456;2022-09-02T13:52:46;4.45;;;1.75;;
18383;SDS011;9318;48.644;9.456;2022-09-02T13:55:15;2.38;;;1.50;;
18383;SDS011;9318;48.644;9.456;2022-09-02T13:57:46;3.55;;;1.40;;
18383;SDS011;9318;48.644;9.456;2022-09-02T14:00:24;1.50;;;1.25;;
18383;SDS011;9318;48.644;9.456;2022-09-02T14:03:00;3.53;;;1.70;;
18383;SDS011;9318;48.644;9.456;2022-09-02T14:05:30;6.90;;;1.40;;
18383;SDS011;9318;48.644;9.456;2022-09-02T14:08:01;2.75;;;1.60;;
18383;SDS011;9318;48.644;9.456;2022-09-02T14:10:31;3.63;;;1.30;;
18383;SDS011;9318;48.644;9.456;2022-09-02T14:13:01;3.85;;;1.50;;
18383;SDS011;9318;48.644;9.456;2022-09-02T14:15:30;2.22;;;1.45;;
18383;SDS011;9318;48.644;9.456;2022-09-02T14:18:10;4.75;;;1.92;;
18383;SDS011;9318;48.644;9.456;2022-09-02T14:20:50;4.75;;;2.60;;
18383;SDS011;9318;48.644;9.456;2022-09-02T14:23:22;3.45;;;1.80;;
18383;SDS011;9318;48.644;9.456;2022-09-02T14:25:51;3.65;;;1.52;;
18383;SDS011;9318;48.644;9.456;2022-09-02T14:28:21;2.95;;;1.70;;
18383;SDS011;9318;48.644;9.456;2022-09-02T14:30:53;2.75;;;1.58;;
18383;SDS011;9318;48.644;9.456;2022-09-02T14:33:35;3.80;;;1.80;;
18383;SDS011;9318;48.644;9.456;2022-09-02T14:36:06;3.35;;;1.80;;
18383;SDS011;9318;48.644;9.456;2022-09-02T14:38:48;3.20;;;1.70;;
18383;SDS011;9318;48.644;9.456;2022-09-02T14:41:18;3.65;;;1.90;;
18383;SDS011;9318;48.644;9.456;2022-09-02T14:43:49;2.35;;;1.58;;
18383;SDS011;9318;48.644;9.456;2022-09-02T14:46:23;3.90;;;2.10;;
18383;SDS011;9318;48.644;9.456;2022-09-02T14:48:55;7.03;;;3.83;;
18383;SDS011;9318;48.644;9.456;2022-09-02T14:51:29;2.90;;;2.15;;
18383;SDS011;9318;48.644;9.456;2022-09-02T14:54:00;3.20;;;1.75;;
18383;SDS011;9318;48.644;9.456;2022-09-02T14:56:44;4.18;;;2.00;;
18383;SDS011;9318;48.644;9.456;2022-09-02T14:59:13;4.38;;;2.10;;
18383;SDS011;9318;48.644;9.456;2022-09-02T15:01:40;4.55;;;2.85;;
18383;SDS011;9318;48.644;9.456;2022-09-02T15:04:13;2.58;;;1.63;;
18383;SDS011;9318;48.644;9.456;2022-09-02T15:06:42;5.03;;;1.83;;
18383;SDS011;9318;48.644;9.456;2022-09-02T15:09:10;2.58;;;2.08;;
18383;SDS011;9318;48.644;9.456;2022-09-02T15:11:47;4.22;;;1.90;;
18383;SDS011;9318;48.644;9.456;2022-09-02T15:14:16;6.32;;;3.13;;
18383;SDS011;9318;48.644;9.456;2022-09-02T15:16:44;4.65;;;2.15;;
18383;SDS011;9318;48.644;9.456;2022-09-02T15:19:13;7.90;;;3.85;;
18383;SDS011;9318;48.644;9.456;2022-09-02T15:21:40;4.80;;;2.10;;
18383;SDS011;9318;48.644;9.456;2022-09-02T15:24:08;5.63;;;3.30;;
18383;SDS011;9318;48.644;9.456;2022-09-02T15:26:35;2.65;;;1.60;;
18383;SDS011;9318;48.644;9.456;2022-09-02T15:29:02;2.42;;;2.00;;
18383;SDS011;9318;48.644;9.456;2022-09-02T15:31:30;2.72;;;1.98;;
18383;SDS011;9318;48.644;9.456;2022-09-02T15:33:59;3.38;;;2.28;;
18383;SDS011;9318;48.644;9.456;2022-09-02T15:36:28;2.13;;;1.40;;
18383;SDS011;9318;48.644;9.456;2022-09-02T15:38:56;3.92;;;1.90;;
18383;SDS011;9318;48.644;9.456;2022-09-02T15:41:24;3.65;;;2.40;;
18383;SDS011;9318;48.644;9.456;2022-09-02T15:43:55;1.60;;;1.50;;
18383;SDS011;9318;48.644;9.456;2022-09-02T15:46:24;2.97;;;1.70;;
18383;SDS011;9318;48.644;9.456;2022-09-02T15:48:53;1.92;;;1.63;;
18383;SDS011;9318;48.644;9.456;2022-09-02T15:51:22;3.97;;;2.70;;
18383;SDS011;9318;48.644;9.456;2022-09-02T15:53:54;2.78;;;1.70;;
18383;SDS011;9318;48.644;9.456;2022-09-02T15:56:23;4.35;;;1.90;;